createdAt,value
2022-10-18T00:01:09.311Z,6.40
2022-10-18T00:06:15.119Z,6.38
2022-10-18T00:08:42.637Z,6.40
2022-10-18T00:11:10.451Z,5.85
2022-10-18T00:13:38.690Z,6.35
2022-10-18T00:16:13.657Z,6.33
2022-10-18T00:18:42.120Z,6.25
2022-10-18T00:21:14.703Z,5.22
2022-10-18T00:23:42.610Z,7.00
2022-10-18T00:26:20.467Z,5.65
2022-10-18T00:28:53.183Z,6.85
2022-10-18T00:31:29.432Z,5.68
2022-10-18T00:34:11.178Z,5.95
2022-10-18T00:36:39.469Z,6.90
2022-10-18T00:39:09.466Z,6.00
2022-10-18T00:41:38.218Z,6.70
2022-10-18T00:44:14.349Z,6.47
2022-10-18T00:47:20.721Z,5.70
2022-10-18T00:49:56.842Z,6.45
2022-10-18T00:52:38.398Z,5.88
2022-10-18T00:55:07.856Z,6.10
2022-10-18T00:57:36.687Z,6.15
2022-10-18T01:00:09.878Z,5.72
2022-10-18T01:02:40.078Z,5.50
2022-10-18T01:05:08.720Z,6.43
2022-10-18T01:08:22.065Z,6.18
2022-10-18T01:11:21.917Z,5.35
2022-10-18T01:14:23.452Z,5.95
2022-10-18T01:16:54.172Z,5.28
2022-10-18T01:19:58.659Z,6.28
2022-10-18T01:22:42.301Z,5.97
2022-10-18T01:25:51.229Z,6.10
2022-10-18T01:29:16.774Z,5.43
2022-10-18T01:32:10.469Z,5.65
2022-10-18T01:34:40.548Z,6.15
2022-10-18T01:37:14.387Z,6.45
2022-10-18T01:39:46.726Z,6.13
2022-10-18T01:42:19.711Z,6.47
2022-10-18T01:44:50.696Z,6.03
2022-10-18T01:47:19.698Z,5.55
2022-10-18T01:49:47.425Z,6.15
2022-10-18T01:52:16.775Z,6.00
2022-10-18T01:54:49.240Z,6.80
2022-10-18T01:57:45.860Z,5.82
2022-10-18T02:00:30.247Z,6.45
2022-10-18T02:03:30.060Z,6.72
2022-10-18T02:06:28.964Z,5.55
2022-10-18T02:09:29.060Z,6.15
2022-10-18T02:11:58.399Z,6.20
2022-10-18T02:14:26.869Z,6.00
2022-10-18T02:17:00.128Z,6.20
2022-10-18T02:19:40.528Z,6.13
2022-10-18T02:22:10.878Z,6.78
2022-10-18T02:24:44.853Z,6.13
2022-10-18T02:27:13.260Z,6.75
2022-10-18T02:29:42.725Z,5.32
2022-10-18T02:32:41.114Z,5.88
2022-10-18T02:35:19.410Z,5.63
2022-10-18T02:37:50.220Z,5.30
2022-10-18T02:40:18.289Z,6.82
2022-10-18T02:42:51.355Z,5.82
2022-10-18T02:45:19.089Z,5.55
2022-10-18T02:47:47.168Z,4.78
2022-10-18T02:50:15.213Z,5.05
2022-10-18T02:52:42.937Z,5.90
2022-10-18T02:55:11.059Z,5.60
2022-10-18T02:57:38.797Z,5.15
2022-10-18T03:00:07.141Z,5.50
2022-10-18T03:02:35.250Z,6.13
2022-10-18T03:05:02.707Z,5.78
2022-10-18T03:07:30.826Z,6.25
2022-10-18T03:09:58.569Z,5.90
2022-10-18T03:12:26.407Z,5.20
2022-10-18T03:14:53.853Z,5.30
2022-10-18T03:17:21.693Z,4.88
2022-10-18T03:19:49.126Z,5.40
2022-10-18T03:22:16.874Z,5.28
2022-10-18T03:24:45.591Z,5.70
2022-10-18T03:27:13.366Z,5.50
2022-10-18T03:29:40.827Z,5.38
2022-10-18T03:32:08.703Z,5.57
2022-10-18T03:34:36.768Z,5.70
2022-10-18T03:37:05.600Z,5.75
2022-10-18T03:39:33.269Z,5.13
2022-10-18T03:42:00.949Z,5.65
2022-10-18T03:44:28.561Z,5.13
2022-10-18T03:46:56.228Z,5.47
2022-10-18T03:49:23.780Z,5.57
2022-10-18T03:51:51.518Z,4.95
2022-10-18T03:54:19.097Z,5.03
2022-10-18T03:56:46.945Z,4.70
2022-10-18T03:59:16.791Z,5.07
2022-10-18T04:01:44.557Z,5.28
2022-10-18T04:04:12.024Z,5.75
2022-10-18T04:06:39.829Z,4.72
2022-10-18T04:09:10.111Z,5.13
2022-10-18T04:11:38.379Z,5.30
2022-10-18T04:14:05.931Z,4.97
2022-10-18T04:16:33.844Z,6.20
2022-10-18T04:19:01.252Z,6.53
2022-10-18T04:21:28.962Z,6.18
2022-10-18T04:23:56.400Z,7.32
2022-10-18T04:26:24.207Z,6.63
2022-10-18T04:28:51.818Z,6.55
2022-10-18T04:31:19.595Z,6.90
2022-10-18T04:33:47.037Z,6.32
2022-10-18T04:36:15.022Z,6.70
2022-10-18T04:38:42.976Z,6.35
2022-10-18T04:41:11.108Z,7.85
2022-10-18T04:43:38.646Z,7.07
2022-10-18T04:46:06.598Z,7.07
2022-10-18T04:48:34.187Z,6.47
2022-10-18T04:51:01.924Z,6.80
2022-10-18T04:53:29.383Z,6.65
2022-10-18T04:55:57.262Z,6.35
2022-10-18T04:58:24.837Z,6.72
2022-10-18T05:00:52.728Z,6.38
2022-10-18T05:03:20.297Z,6.90
2022-10-18T05:06:01.704Z,5.68
2022-10-18T05:08:31.009Z,6.32
2022-10-18T05:10:59.196Z,6.80
2022-10-18T05:13:27.089Z,4.85
2022-10-18T05:15:54.866Z,5.68
2022-10-18T05:18:22.351Z,5.57
2022-10-18T05:20:50.033Z,6.22
2022-10-18T05:23:17.528Z,6.07
2022-10-18T05:25:45.306Z,6.40
2022-10-18T05:28:34.058Z,5.90
2022-10-18T05:31:05.977Z,7.93
2022-10-18T05:33:34.026Z,8.63
2022-10-18T05:36:02.114Z,8.02
2022-10-18T05:38:32.845Z,10.32
2022-10-18T05:41:04.556Z,8.98
2022-10-18T05:43:32.035Z,10.35
2022-10-18T05:46:00.033Z,10.27
2022-10-18T05:48:27.442Z,11.32
2022-10-18T05:50:59.541Z,9.68
2022-10-18T05:53:37.112Z,10.38
2022-10-18T05:56:07.291Z,10.90
2022-10-18T05:58:35.372Z,10.13
2022-10-18T06:01:05.372Z,9.57
2022-10-18T06:03:33.464Z,9.55
2022-10-18T06:06:10.802Z,7.20
2022-10-18T06:08:40.865Z,7.25
2022-10-18T06:11:14.957Z,6.82
2022-10-18T06:13:47.919Z,6.75
2022-10-18T06:16:19.320Z,5.57
2022-10-18T06:18:53.198Z,6.78
2022-10-18T06:21:22.552Z,7.22
2022-10-18T06:23:56.198Z,5.22
2022-10-18T06:26:25.705Z,5.50
2022-10-18T06:28:53.312Z,6.05
2022-10-18T06:31:21.408Z,5.47
2022-10-18T06:33:49.348Z,4.75
2022-10-18T06:36:22.087Z,4.00
2022-10-18T06:38:50.229Z,4.70
2022-10-18T06:41:19.361Z,4.95
2022-10-18T06:43:51.303Z,5.53
2022-10-18T06:46:19.422Z,5.80
2022-10-18T06:48:47.152Z,5.13
2022-10-18T06:51:15.429Z,5.85
2022-10-18T06:53:44.599Z,5.07
2022-10-18T06:56:21.240Z,5.93
2022-10-18T06:58:48.964Z,4.82
2022-10-18T07:01:18.740Z,5.20
2022-10-18T07:03:48.380Z,5.28
2022-10-18T07:06:18.766Z,4.78
2022-10-18T07:08:48.278Z,4.65
2022-10-18T07:11:19.889Z,4.85
2022-10-18T07:13:47.418Z,4.38
2022-10-18T07:16:18.631Z,3.65
2022-10-18T07:18:50.363Z,4.07
2022-10-18T07:21:24.697Z,3.60
2022-10-18T07:23:52.843Z,4.07
2022-10-18T07:26:30.210Z,3.15
2022-10-18T07:29:11.651Z,3.92
2022-10-18T07:31:40.947Z,3.90
2022-10-18T07:34:11.915Z,3.45
2022-10-18T07:36:40.557Z,4.57
2022-10-18T07:39:09.373Z,3.70
2022-10-18T07:41:37.269Z,2.55
2022-10-18T07:44:05.372Z,3.05
2022-10-18T07:46:33.383Z,3.33
2022-10-18T07:49:00.913Z,3.65
2022-10-18T07:51:30.917Z,2.95
2022-10-18T07:53:59.360Z,3.38
2022-10-18T07:56:27.096Z,3.00
2022-10-18T07:58:56.637Z,3.20
2022-10-18T08:01:25.986Z,2.92
2022-10-18T08:06:23.385Z,2.97
2022-10-18T08:08:50.972Z,3.25
2022-10-18T08:11:25.038Z,2.67
2022-10-18T08:13:53.975Z,2.67
2022-10-18T08:16:40.031Z,2.28
2022-10-18T08:19:07.599Z,2.45
2022-10-18T08:21:35.334Z,2.38
2022-10-18T08:24:02.815Z,2.22
2022-10-18T08:26:30.547Z,2.83
2022-10-18T08:29:10.634Z,2.17
2022-10-18T08:31:45.630Z,2.88
2022-10-18T08:34:18.641Z,2.40
2022-10-18T08:36:47.480Z,2.17
2022-10-18T08:39:14.902Z,2.50
2022-10-18T08:42:17.675Z,2.60
2022-10-18T08:44:49.470Z,2.65
2022-10-18T08:47:31.327Z,2.53
2022-10-18T08:50:14.306Z,2.15
2022-10-18T08:53:04.794Z,2.75
2022-10-18T08:55:38.865Z,2.40
2022-10-18T08:58:26.690Z,2.13
2022-10-18T09:01:12.658Z,2.83
2022-10-18T09:04:27.976Z,2.90
2022-10-18T09:07:20.072Z,2.67
2022-10-18T09:10:07.160Z,2.85
2022-10-18T09:12:58.769Z,2.38
2022-10-18T09:15:45.061Z,2.67
2022-10-18T09:18:55.476Z,2.60
2022-10-18T09:21:55.328Z,2.60
2022-10-18T09:24:39.648Z,3.75
2022-10-18T09:27:20.243Z,3.75
2022-10-18T09:30:07.809Z,3.38
2022-10-18T09:33:14.276Z,3.00
2022-10-18T09:36:03.296Z,3.75
2022-10-18T09:38:49.609Z,3.97
2022-10-18T09:41:42.862Z,3.75
2022-10-18T09:44:22.222Z,3.10
2022-10-18T09:47:16.557Z,2.92
2022-10-18T09:49:51.056Z,3.13
2022-10-18T09:52:38.846Z,2.15
2022-10-18T09:55:16.897Z,2.63
2022-10-18T09:57:54.089Z,3.17
2022-10-18T10:00:31.461Z,2.67
2022-10-18T10:03:02.002Z,2.50
2022-10-18T10:05:29.771Z,2.85
2022-10-18T10:08:02.244Z,2.53
2022-10-18T10:10:31.839Z,2.40
2022-10-18T10:13:16.868Z,2.25
2022-10-18T10:15:56.358Z,2.22
2022-10-18T10:21:15.817Z,1.65
2022-10-18T10:23:47.448Z,2.47
2022-10-18T10:26:29.436Z,2.30
2022-10-18T10:28:57.332Z,2.35
2022-10-18T10:31:24.971Z,2.22
2022-10-18T10:34:14.499Z,1.92
2022-10-18T10:36:52.241Z,2.13
2022-10-18T10:39:22.749Z,1.88
2022-10-18T10:41:56.994Z,1.70
2022-10-18T10:44:36.228Z,2.05
2022-10-18T10:47:04.831Z,1.77
2022-10-18T10:49:47.687Z,1.90
2022-10-18T10:52:28.326Z,1.38
2022-10-18T11:00:44.341Z,1.33
2022-10-18T11:03:33.805Z,1.63
2022-10-18T11:08:41.131Z,1.52
2022-10-18T11:11:26.781Z,1.67
2022-10-18T11:14:26.207Z,1.38
2022-10-18T11:17:21.988Z,1.60
2022-10-18T11:20:09.753Z,1.75
2022-10-18T11:22:56.890Z,1.73
2022-10-18T11:25:43.131Z,2.20
2022-10-18T11:28:40.920Z,2.20
2022-10-18T11:31:50.501Z,1.83
2022-10-18T11:34:25.631Z,1.50
2022-10-18T11:37:47.285Z,2.03
2022-10-18T11:40:45.161Z,2.70
2022-10-18T11:43:30.124Z,4.63
2022-10-18T11:49:16.673Z,3.30
2022-10-18T11:52:13.843Z,4.20
2022-10-18T11:54:57.187Z,1.98
2022-10-18T11:57:55.643Z,2.22
2022-10-18T12:00:40.505Z,2.92
2022-10-18T12:03:38.929Z,3.35
2022-10-18T12:06:34.062Z,2.38
2022-10-18T12:09:37.010Z,2.40
2022-10-18T12:12:28.325Z,2.20
2022-10-18T12:15:22.825Z,2.70
2022-10-18T12:18:03.464Z,2.72
2022-10-18T12:20:50.201Z,2.15
2022-10-18T12:23:29.647Z,3.08
2022-10-18T12:26:03.898Z,2.90
2022-10-18T12:29:00.632Z,2.03
2022-10-18T12:32:08.841Z,2.42
2022-10-18T12:34:48.304Z,1.95
2022-10-18T12:37:36.610Z,1.90
2022-10-18T12:40:46.606Z,2.60
2022-10-18T12:43:37.685Z,2.15
2022-10-18T12:46:13.567Z,1.60
2022-10-18T12:48:45.750Z,1.98
2022-10-18T12:51:26.801Z,1.88
2022-10-18T12:54:02.953Z,1.98
2022-10-18T12:56:34.199Z,1.95
2022-10-18T12:59:16.259Z,1.77
2022-10-18T13:01:53.313Z,2.35
2022-10-18T13:04:32.422Z,2.60
2022-10-18T13:07:00.041Z,1.98
2022-10-18T13:09:36.964Z,1.92
2022-10-18T13:12:10.627Z,2.00
2022-10-18T13:15:20.540Z,1.25
2022-10-18T13:17:57.452Z,1.77
2022-10-18T13:21:17.805Z,2.03
2022-10-18T13:24:26.227Z,1.67
2022-10-18T13:27:34.847Z,2.00
2022-10-18T13:30:30.054Z,1.80
2022-10-18T13:33:35.154Z,1.77
2022-10-18T13:36:23.596Z,2.13
2022-10-18T13:38:55.545Z,2.00
2022-10-18T13:41:28.342Z,1.45
2022-10-18T13:44:30.510Z,1.00
2022-10-18T13:46:58.271Z,1.20
2022-10-18T13:50:08.152Z,1.50
2022-10-18T13:53:16.175Z,1.50
2022-10-18T13:56:22.021Z,1.85
2022-10-18T13:59:15.125Z,2.05
2022-10-18T14:02:30.701Z,2.50
2022-10-18T14:05:29.391Z,2.83
2022-10-18T14:08:12.844Z,1.92
2022-10-18T14:11:11.133Z,1.67
2022-10-18T14:13:56.419Z,2.00
2022-10-18T14:16:55.006Z,1.88
2022-10-18T14:19:47.908Z,1.90
2022-10-18T14:22:26.973Z,1.90
2022-10-18T14:24:57.969Z,2.20
2022-10-18T14:27:29.262Z,2.20
2022-10-18T14:30:20.585Z,1.95
2022-10-18T14:32:56.399Z,1.92
2022-10-18T14:35:33.221Z,2.25
2022-10-18T14:38:02.576Z,2.42
2022-10-18T14:43:15.873Z,2.80
2022-10-18T14:45:43.749Z,3.55
2022-10-18T14:48:17.123Z,3.25
2022-10-18T14:50:59.183Z,2.67
2022-10-18T14:53:40.186Z,2.03
2022-10-18T14:56:19.641Z,3.45
2022-10-18T14:58:47.573Z,2.45
2022-10-18T15:01:20.275Z,2.42
2022-10-18T15:03:49.165Z,3.92
2022-10-18T15:06:20.628Z,3.38
2022-10-18T15:08:56.353Z,3.22
2022-10-18T15:11:25.917Z,3.08
2022-10-18T15:14:06.896Z,3.83
2022-10-18T15:16:38.404Z,3.97
2022-10-18T15:19:28.483Z,4.45
2022-10-18T15:22:30.892Z,7.97
2022-10-18T15:25:32.083Z,6.97
2022-10-18T15:28:01.416Z,5.20
2022-10-18T15:30:36.315Z,5.22
2022-10-18T15:33:10.124Z,5.80
2022-10-18T15:35:41.244Z,6.60
2022-10-18T15:38:25.209Z,5.55
2022-10-18T15:40:54.217Z,9.80
2022-10-18T15:43:24.619Z,8.93
2022-10-18T15:45:55.007Z,12.23
2022-10-18T15:48:40.232Z,11.30
2022-10-18T15:51:49.917Z,8.80
2022-10-18T15:54:29.591Z,8.13
2022-10-18T15:56:57.522Z,7.43
2022-10-18T15:59:32.162Z,7.75
2022-10-18T16:01:59.932Z,7.95
2022-10-18T16:04:32.521Z,7.10
2022-10-18T16:07:00.805Z,6.90
2022-10-18T16:09:29.364Z,5.47
2022-10-18T16:11:58.296Z,6.30
2022-10-18T16:14:26.922Z,6.65
2022-10-18T16:17:03.032Z,5.82
2022-10-18T16:19:32.247Z,6.43
2022-10-18T16:22:06.137Z,5.82
2022-10-18T16:24:34.072Z,7.00
2022-10-18T16:27:01.782Z,6.03
2022-10-18T16:29:32.127Z,11.68
2022-10-18T16:32:01.208Z,12.20
2022-10-18T16:34:32.140Z,9.20
2022-10-18T16:36:59.950Z,8.23
2022-10-18T16:39:28.501Z,8.57
2022-10-18T16:41:56.389Z,8.15
2022-10-18T16:44:23.858Z,20.63
2022-10-18T16:46:53.991Z,11.55
2022-10-18T16:49:26.756Z,8.25
2022-10-18T16:51:55.164Z,7.53
2022-10-18T16:54:23.608Z,6.85
2022-10-18T16:56:51.373Z,7.03
2022-10-18T16:59:29.160Z,6.63
2022-10-18T17:01:57.491Z,7.78
2022-10-18T17:04:25.248Z,6.25
2022-10-18T17:06:57.359Z,8.02
2022-10-18T17:09:25.666Z,6.57
2022-10-18T17:11:53.660Z,6.30
2022-10-18T17:14:21.212Z,5.15
2022-10-18T17:16:53.080Z,6.78
2022-10-18T17:19:23.549Z,5.35
2022-10-18T17:21:51.330Z,6.15
2022-10-18T17:24:18.750Z,6.00
2022-10-18T17:26:46.505Z,5.78
2022-10-18T17:29:14.211Z,7.43
2022-10-18T17:31:42.059Z,7.05
2022-10-18T17:34:09.584Z,6.38
2022-10-18T17:36:38.710Z,6.25
2022-10-18T17:39:06.277Z,5.77
2022-10-18T17:41:34.001Z,5.63
2022-10-18T17:44:06.402Z,4.72
2022-10-18T17:46:34.254Z,5.82
2022-10-18T17:49:01.686Z,5.00
2022-10-18T17:51:29.542Z,5.75
2022-10-18T17:53:57.042Z,6.80
2022-10-18T17:56:27.120Z,6.75
2022-10-18T17:58:54.611Z,6.40
2022-10-18T18:01:23.554Z,6.03
2022-10-18T18:03:57.485Z,5.95
2022-10-18T18:06:39.079Z,5.80
2022-10-18T18:09:13.881Z,5.65
2022-10-18T18:11:44.007Z,6.22
2022-10-18T18:14:12.482Z,6.10
2022-10-18T18:16:44.143Z,6.60
2022-10-18T18:19:12.611Z,6.63
2022-10-18T18:21:42.671Z,6.40
2022-10-18T18:24:11.471Z,7.03
2022-10-18T18:26:40.718Z,6.70
2022-10-18T18:29:08.501Z,6.30
2022-10-18T18:31:40.092Z,6.45
2022-10-18T18:34:10.411Z,5.38
2022-10-18T18:36:38.425Z,5.07
2022-10-18T18:39:06.833Z,5.10
2022-10-18T18:41:35.033Z,6.30
2022-10-18T18:44:05.704Z,6.50
2022-10-18T18:46:38.639Z,5.95
2022-10-18T18:49:08.077Z,5.35
2022-10-18T18:51:40.579Z,5.50
2022-10-18T18:54:10.174Z,6.43
2022-10-18T18:56:38.684Z,6.15
2022-10-18T18:59:06.949Z,6.55
2022-10-18T19:01:37.775Z,7.07
2022-10-18T19:04:07.444Z,7.32
2022-10-18T19:06:39.760Z,8.27
2022-10-18T19:09:19.315Z,6.90
2022-10-18T19:11:50.754Z,7.90
2022-10-18T19:16:59.077Z,7.03
2022-10-18T19:19:29.665Z,10.48
2022-10-18T19:22:01.054Z,6.50
2022-10-18T19:24:30.612Z,6.45
2022-10-18T19:27:40.052Z,4.85
2022-10-18T19:30:16.042Z,6.97
2022-10-18T19:32:44.043Z,6.53
2022-10-18T19:35:11.618Z,6.68
2022-10-18T19:37:39.469Z,5.70
2022-10-18T19:40:07.837Z,4.97
2022-10-18T19:42:37.444Z,4.95
2022-10-18T19:45:05.762Z,5.35
2022-10-18T19:47:33.909Z,6.20
2022-10-18T19:50:02.097Z,5.30
2022-10-18T19:52:29.948Z,5.93
2022-10-18T19:54:57.539Z,6.13
2022-10-18T19:57:25.620Z,4.95
2022-10-18T19:59:54.382Z,5.82
2022-10-18T20:02:24.090Z,5.13
2022-10-18T20:04:51.663Z,5.93
2022-10-18T20:07:19.432Z,5.68
2022-10-18T20:09:48.057Z,5.68
2022-10-18T20:12:15.792Z,5.65
2022-10-18T20:15:02.138Z,5.85
2022-10-18T20:18:26.270Z,5.85
2022-10-18T20:21:40.160Z,5.70
2022-10-18T20:24:09.479Z,5.13
2022-10-18T20:26:37.132Z,5.43
2022-10-18T20:29:05.633Z,5.77
2022-10-18T20:31:37.219Z,5.43
2022-10-18T20:34:13.611Z,5.65
2022-10-18T20:36:43.502Z,5.25
2022-10-18T20:39:11.327Z,5.93
2022-10-18T20:41:41.414Z,5.00
2022-10-18T20:44:16.014Z,6.45
2022-10-18T20:46:44.668Z,5.80
2022-10-18T20:49:15.604Z,5.90
2022-10-18T20:51:43.559Z,5.15
2022-10-18T20:54:12.720Z,5.40
2022-10-18T20:56:40.315Z,5.87
2022-10-18T20:59:10.106Z,5.10
2022-10-18T21:01:39.276Z,5.10
2022-10-18T21:04:10.223Z,5.13
2022-10-18T21:06:44.160Z,5.65
2022-10-18T21:09:18.933Z,5.65
2022-10-18T21:11:50.324Z,5.88
2022-10-18T21:14:22.406Z,6.90
2022-10-18T21:16:52.854Z,5.43
2022-10-18T21:19:41.769Z,5.57
2022-10-18T21:22:09.892Z,6.05
2022-10-18T21:24:45.932Z,6.22
2022-10-18T21:28:33.612Z,6.93
2022-10-18T21:31:19.468Z,6.28
2022-10-18T21:33:47.682Z,6.32
2022-10-18T21:36:15.981Z,6.10
2022-10-18T21:38:46.792Z,6.20
2022-10-18T21:41:17.597Z,5.35
2022-10-18T21:43:48.706Z,5.78
2022-10-18T21:46:18.373Z,6.90
2022-10-18T21:51:19.463Z,5.68
2022-10-18T21:57:25.838Z,5.68
2022-10-18T21:59:57.777Z,5.90
2022-10-18T22:02:32.834Z,5.50
2022-10-18T22:05:18.696Z,5.07
2022-10-18T22:07:52.625Z,5.60
2022-10-18T22:10:26.009Z,6.03
2022-10-18T22:13:15.375Z,5.95
2022-10-18T22:15:50.411Z,6.22
2022-10-18T22:18:25.339Z,5.60
2022-10-18T22:21:23.392Z,5.75
2022-10-18T22:24:05.571Z,5.97
2022-10-18T22:26:39.863Z,6.43
2022-10-18T22:29:21.047Z,5.07
2022-10-18T22:32:10.597Z,5.35
2022-10-18T22:34:40.785Z,5.03
2022-10-18T22:37:08.346Z,5.05
2022-10-18T22:39:36.057Z,5.68
2022-10-18T22:42:05.582Z,6.70
2022-10-18T22:44:36.816Z,10.07
2022-10-18T22:47:07.981Z,9.05
2022-10-18T22:49:35.761Z,8.98
2022-10-18T22:52:03.258Z,7.85
2022-10-18T22:54:32.442Z,8.27
2022-10-18T22:57:05.537Z,9.13
2022-10-18T22:59:39.453Z,8.45
2022-10-18T23:02:15.065Z,8.48
2022-10-18T23:04:51.156Z,8.00
2022-10-18T23:07:27.338Z,7.53
2022-10-18T23:10:02.148Z,7.75
2022-10-18T23:12:35.973Z,7.30
2022-10-18T23:15:12.780Z,7.82
2022-10-18T23:17:48.166Z,8.35
2022-10-18T23:20:22.706Z,7.85
2022-10-18T23:22:55.648Z,7.45
2022-10-18T23:25:32.672Z,6.00
2022-10-18T23:28:09.006Z,6.25
2022-10-18T23:30:46.286Z,6.70
2022-10-18T23:33:19.440Z,6.43
2022-10-18T23:35:57.356Z,5.97
2022-10-18T23:38:35.761Z,5.25
2022-10-18T23:41:19.664Z,4.27
2022-10-18T23:43:52.663Z,4.90
2022-10-18T23:46:28.103Z,4.65
2022-10-18T23:48:59.856Z,5.40
2022-10-18T23:51:30.010Z,5.82
2022-10-18T23:53:59.760Z,4.15
2022-10-18T23:56:31.535Z,4.93
2022-10-18T23:59:00.814Z,4.35
